createdAt,value
2019-04-23T00:03:13.242Z,56.88
2019-04-23T00:08:41.591Z,57.98
2019-04-23T00:13:30.343Z,58.17
2019-04-23T00:18:37.754Z,57.22
2019-04-23T00:23:46.451Z,58.79
2019-04-23T00:28:47.927Z,57.63
2019-04-23T00:33:44.403Z,58.08
2019-04-23T00:39:01.274Z,58.46
2019-04-23T00:44:12.222Z,57.72
2019-04-23T00:49:05.315Z,57.22
2019-04-23T00:54:05.944Z,56.85
2019-04-23T00:59:08.878Z,58.04
2019-04-23T01:04:12.213Z,57.39
2019-04-23T01:09:25.758Z,57.21
2019-04-23T01:14:31.584Z,58.06
2019-04-23T01:19:50.084Z,58.54
2019-04-23T01:25:07.736Z,57.80
2019-04-23T01:30:24.936Z,57.70
2019-04-23T01:35:28.810Z,58.01
2019-04-23T01:40:36.453Z,58.41
2019-04-23T01:45:54.704Z,58.26
2019-04-23T01:50:50.128Z,58.42
2019-04-23T01:55:54.475Z,58.21
2019-04-23T02:01:00.850Z,57.69
2019-04-23T02:06:03.211Z,58.73
2019-04-23T02:11:07.970Z,58.43
2019-04-23T02:16:10.599Z,58.58
2019-04-23T02:21:15.547Z,59.13
2019-04-23T02:36:55.073Z,58.69
2019-04-23T02:41:54.312Z,59.28
2019-04-23T02:47:00.110Z,59.78
2019-04-23T02:57:05.671Z,60.19
2019-04-23T03:02:24.419Z,60.68
2019-04-23T03:07:22.338Z,60.47
2019-04-23T03:12:24.935Z,60.78
2019-04-23T03:17:31.014Z,59.90
2019-04-23T03:23:02.684Z,60.86
2019-04-23T03:27:56.170Z,60.85
2019-04-23T03:38:25.580Z,61.20
2019-04-23T03:43:14.477Z,61.40
2019-04-23T03:53:32.967Z,61.35
2019-04-23T04:04:09.706Z,61.27
2019-04-23T04:08:35.887Z,61.87
2019-04-23T04:24:01.577Z,61.79
2019-04-23T04:38:59.103Z,61.66
2019-04-23T04:44:26.331Z,62.00
2019-04-23T04:49:23.941Z,61.23
2019-04-23T04:54:21.515Z,61.92
2019-04-23T05:04:39.857Z,63.12
2019-04-23T05:09:48.263Z,61.88
2019-04-23T05:14:52.817Z,62.55
2019-04-23T05:19:52.775Z,62.46
2019-04-23T05:24:48.496Z,63.25
2019-04-23T05:30:06.085Z,63.85
2019-04-23T05:35:07.975Z,62.84
2019-04-23T05:40:02.623Z,62.99
2019-04-23T05:45:14.386Z,59.95
2019-04-23T05:50:18.608Z,60.66
2019-04-23T05:55:13.603Z,60.12
2019-04-23T06:00:23.633Z,59.14
2019-04-23T06:05:34.153Z,59.48
2019-04-23T06:10:33.982Z,59.46
2019-04-23T06:15:37.001Z,58.33
2019-04-23T06:20:48.739Z,58.56
2019-04-23T06:31:01.683Z,57.68
2019-04-23T06:36:05.893Z,56.61
2019-04-23T06:41:13.212Z,55.29
2019-04-23T06:46:11.948Z,53.70
2019-04-23T06:51:22.345Z,53.91
2019-04-23T06:56:24.686Z,53.67
2019-04-23T07:01:29.484Z,54.16
2019-04-23T07:06:56.781Z,54.23
2019-04-23T07:11:48.177Z,52.75
2019-04-23T07:16:38.559Z,50.89
2019-04-23T07:21:55.889Z,51.95
2019-04-23T07:26:49.365Z,49.02
2019-04-23T07:31:59.307Z,48.82
2019-04-23T07:37:05.196Z,48.65
2019-04-23T07:42:37.285Z,48.67
2019-04-23T07:48:08.119Z,48.50
2019-04-23T07:53:17.279Z,48.33
2019-04-23T07:58:17.283Z,48.35
2019-04-23T08:13:33.647Z,46.87
2019-04-23T08:18:29.973Z,47.11
2019-04-23T08:24:01.997Z,48.58
2019-04-23T08:29:06.497Z,47.08
2019-04-23T08:34:18.636Z,46.09
2019-04-23T08:39:12.258Z,46.32
2019-04-23T08:44:46.182Z,48.01
2019-04-23T08:49:50.627Z,46.26
2019-04-23T08:59:50.296Z,45.65
2019-04-23T09:05:00.763Z,46.40
2019-04-23T09:10:08.380Z,45.71
2019-04-23T09:15:13.026Z,46.15
2019-04-23T09:25:37.327Z,45.48
2019-04-23T09:35:42.764Z,44.55
2019-04-23T09:41:08.444Z,45.46
2019-04-23T09:46:12.431Z,45.17
2019-04-23T09:51:10.199Z,44.81
2019-04-23T09:56:14.111Z,44.02
2019-04-23T10:01:26.489Z,45.29
2019-04-23T10:06:12.448Z,45.81
2019-04-23T10:11:11.718Z,44.25
2019-04-23T10:16:17.253Z,43.87
2019-04-23T10:21:23.823Z,43.83
2019-04-23T10:26:28.205Z,43.57
2019-04-23T10:31:31.611Z,42.38
2019-04-23T10:36:36.172Z,42.43
2019-04-23T10:41:42.260Z,42.41
2019-04-23T10:47:30.528Z,42.33
2019-04-23T10:52:36.369Z,40.53
2019-04-23T10:57:36.094Z,40.55
2019-04-23T11:02:51.330Z,42.63
2019-04-23T11:07:42.088Z,42.41
2019-04-23T11:13:10.822Z,41.57
2019-04-23T11:18:17.398Z,40.75
2019-04-23T11:23:04.908Z,41.37
2019-04-23T11:28:20.731Z,41.59
2019-04-23T11:33:19.417Z,42.57
2019-04-23T11:43:34.230Z,42.27
2019-04-23T11:48:50.805Z,41.94
2019-04-23T11:58:46.916Z,41.88
2019-04-23T12:14:35.215Z,40.69
2019-04-23T12:29:47.555Z,40.10
2019-04-23T12:35:01.547Z,38.84
2019-04-23T12:40:12.899Z,40.37
2019-04-23T12:45:18.554Z,40.42
2019-04-23T12:50:38.792Z,41.11
2019-04-23T13:00:22.463Z,40.92
2019-04-23T13:15:34.745Z,39.67
2019-04-23T13:25:59.731Z,41.80
2019-04-23T13:31:08.525Z,41.59
2019-04-23T13:41:20.400Z,40.44
2019-04-23T13:46:17.805Z,40.32
2019-04-23T13:51:26.064Z,39.46
2019-04-23T14:01:46.929Z,38.89
2019-04-23T14:06:42.592Z,38.44
2019-04-23T14:11:40.114Z,39.77
2019-04-23T14:17:00.246Z,38.91
2019-04-23T14:22:07.073Z,38.57
2019-04-23T14:27:09.423Z,39.34
2019-04-23T14:32:15.605Z,37.76
2019-04-23T14:37:17.624Z,37.54
2019-04-23T14:42:30.942Z,38.38
2019-04-23T14:47:27.969Z,38.18
2019-04-23T14:52:38.917Z,37.88
2019-04-23T15:02:48.286Z,38.24
2019-04-23T15:07:42.111Z,38.18
2019-04-23T15:12:52.064Z,37.28
2019-04-23T15:17:55.673Z,36.98
2019-04-23T15:28:06.545Z,36.67
2019-04-23T15:33:19.914Z,36.87
2019-04-23T15:38:40.063Z,37.92
2019-04-23T15:43:22.575Z,36.63
2019-04-23T15:48:31.871Z,36.55
2019-04-23T15:53:25.975Z,37.88
2019-04-23T15:58:46.180Z,38.20
2019-04-23T16:03:15.596Z,37.68
2019-04-23T16:09:01.629Z,38.65
2019-04-23T16:19:24.754Z,38.15
2019-04-23T16:24:20.583Z,38.77
2019-04-23T16:29:47.927Z,38.76
2019-04-23T16:34:48.903Z,39.81
2019-04-23T16:40:01.610Z,40.19
2019-04-23T16:55:29.432Z,42.82
2019-04-23T17:05:23.686Z,44.27
2019-04-23T17:10:38.509Z,45.17
2019-04-23T17:15:48.162Z,45.38
2019-04-23T17:20:46.775Z,46.24
2019-04-23T17:25:48.557Z,46.62
2019-04-23T17:31:18.864Z,46.95
2019-04-23T17:42:12.514Z,48.50
2019-04-23T17:47:14.078Z,49.39
2019-04-23T17:52:20.326Z,49.71
2019-04-23T17:57:26.437Z,50.67
2019-04-23T18:02:51.670Z,51.45
2019-04-23T18:12:51.805Z,52.75
2019-04-23T18:23:00.448Z,53.42
2019-04-23T18:33:49.145Z,54.20
2019-04-23T18:38:24.897Z,54.99
2019-04-23T18:43:29.751Z,55.21
2019-04-23T19:04:20.067Z,57.05
2019-04-23T19:09:47.453Z,57.69
2019-04-23T19:14:56.153Z,58.02
2019-04-23T19:24:48.368Z,59.03
2019-04-23T19:30:07.082Z,59.22
2019-04-23T19:35:04.131Z,58.98
2019-04-23T19:40:10.047Z,59.36
2019-04-23T19:45:24.513Z,58.45
2019-04-23T19:50:34.386Z,57.22
2019-04-23T19:55:32.837Z,56.40
2019-04-23T20:01:01.655Z,56.58
2019-04-23T20:05:46.810Z,57.41
2019-04-23T20:10:46.421Z,58.14
2019-04-23T20:16:05.727Z,59.46
2019-04-23T20:32:27.328Z,60.81
2019-04-23T20:47:08.559Z,61.99
2019-04-23T20:52:07.339Z,62.77
2019-04-23T21:03:18.135Z,64.06
2019-04-23T21:28:38.184Z,67.30
2019-04-23T21:33:35.241Z,67.80
2019-04-23T21:38:58.679Z,68.58
2019-04-23T21:44:05.650Z,68.19
2019-04-23T21:49:08.910Z,68.54
2019-04-23T21:53:56.883Z,69.05
2019-04-23T21:59:06.842Z,68.85
2019-04-23T22:24:21.578Z,69.61
2019-04-23T22:29:33.081Z,69.61
2019-04-23T22:34:38.932Z,69.87
2019-04-23T22:39:46.543Z,70.31
2019-04-23T22:45:07.522Z,70.40
2019-04-23T22:50:02.713Z,70.81
2019-04-23T23:00:17.758Z,71.45
2019-04-23T23:05:22.430Z,71.69
2019-04-23T23:10:20.084Z,71.40
2019-04-23T23:15:24.160Z,72.89
2019-04-23T23:20:31.184Z,72.14
2019-04-23T23:25:30.872Z,71.94
2019-04-23T23:30:45.271Z,72.00
2019-04-23T23:35:44.419Z,72.66
2019-04-23T23:40:57.450Z,72.35
2019-04-23T23:46:03.354Z,72.24
2019-04-23T23:56:10.931Z,72.09
